Time;durP1;ratioP1;P1;durP2;ratioP2;P2;SDS_P1;SDS_P2;PMS_P1;PMS_P2;Temp;Humidity;BMP_temperature;BMP_pressure;BME280_temperature;BME280_humidity;BME280_pressure;Samples;Min_cycle;Max_cycle;Signal;HPM_P1;HPM_P2
2023/01/30 00:00:25;;;;;;;20.23;12.23;;;-0.90;99.90;;;;;;4997113;28;20591;-37
2023/01/30 00:02:51;;;;;;;23.37;13.43;;;-0.90;99.90;;;;;;4997505;28;20223;-37
2023/01/30 00:05:17;;;;;;;20.20;12.93;;;-0.90;99.90;;;;;;5013676;28;20230;-37
2023/01/30 00:07:42;;;;;;;20.53;12.40;;;-1.00;99.90;;;;;;4996742;28;20217;-39
2023/01/30 00:10:09;;;;;;;19.87;11.90;;;-0.90;99.90;;;;;;5015087;28;20171;-37
2023/01/30 00:12:35;;;;;;;21.87;13.27;;;-1.00;99.90;;;;;;5013452;28;20229;-35
2023/01/30 00:15:01;;;;;;;24.63;14.23;;;-0.90;99.90;;;;;;4993500;28;20259;-37
2023/01/30 00:17:26;;;;;;;18.33;11.40;;;-0.90;99.90;;;;;;5009728;28;20180;-37
2023/01/30 00:19:52;;;;;;;18.60;11.90;;;-0.90;99.90;;;;;;5006022;28;20198;-36
2023/01/30 00:22:18;;;;;;;17.60;11.10;;;-0.90;99.90;;;;;;5015091;28;20193;-37
2023/01/30 00:24:44;;;;;;;19.63;11.93;;;-0.90;99.90;;;;;;5014121;28;20179;-37
2023/01/30 00:27:09;;;;;;;21.43;12.70;;;-0.90;99.90;;;;;;5004813;28;20613;-35
2023/01/30 00:29:35;;;;;;;23.70;13.87;;;-0.90;99.90;;;;;;5001038;28;20607;-32
2023/01/30 00:32:01;;;;;;;23.07;13.07;;;-0.90;99.90;;;;;;4996746;28;20180;-37
2023/01/30 00:34:27;;;;;;;19.13;12.30;;;-1.00;99.90;;;;;;5012943;28;20208;-37
2023/01/30 00:36:52;;;;;;;19.30;11.63;;;-1.00;99.90;;;;;;4996982;28;20270;-39
2023/01/30 00:39:18;;;;;;;18.17;11.77;;;-1.00;99.90;;;;;;5012888;28;20227;-37
2023/01/30 00:47:13;;;;;;;33.23;15.83;;;-1.00;99.90;;;;;;5014373;28;20342;-37
2023/01/30 00:49:38;;;;;;;20.93;12.67;;;-1.00;99.90;;;;;;5012860;28;20289;-38
2023/01/30 00:52:04;;;;;;;20.70;12.27;;;-1.00;99.90;;;;;;5013078;28;20177;-35
2023/01/30 00:54:30;;;;;;;20.53;11.70;;;-1.00;99.90;;;;;;4995959;28;20176;-35
2023/01/30 00:56:57;;;;;;;20.20;11.93;;;-1.00;99.90;;;;;;5012459;28;20183;-38
2023/01/30 00:59:25;;;;;;;18.43;11.23;;;-1.00;99.90;;;;;;4996664;28;20210;-38
2023/01/30 01:01:51;;;;;;;19.17;11.73;;;-1.00;99.90;;;;;;5012451;28;20187;-34
2023/01/30 01:04:17;;;;;;;20.20;11.83;;;-1.00;99.90;;;;;;5011990;28;20198;-35
2023/01/30 01:06:42;;;;;;;18.73;11.43;;;-1.00;99.90;;;;;;5012082;28;20218;-39
2023/01/30 01:09:08;;;;;;;18.50;11.40;;;-1.00;99.90;;;;;;4996104;28;20235;-37
2023/01/30 01:11:35;;;;;;;19.50;11.73;;;-1.00;99.90;;;;;;5013615;28;20186;-36
2023/01/30 01:14:02;;;;;;;17.57;11.63;;;-1.00;99.90;;;;;;4996195;28;20183;-37
2023/01/30 01:16:30;;;;;;;19.50;12.10;;;-1.00;99.90;;;;;;5012270;28;20194;-38
2023/01/30 01:18:57;;;;;;;17.77;10.87;;;-1.00;99.90;;;;;;4996312;28;20219;-37
2023/01/30 01:21:23;;;;;;;20.57;11.50;;;-1.00;99.90;;;;;;4995895;28;20191;-37
2023/01/30 01:23:57;;;;;;;18.60;11.03;;;-1.00;99.90;;;;;;5011910;28;20189;-38
2023/01/30 01:26:23;;;;;;;18.30;11.23;;;-1.00;99.90;;;;;;5002284;28;20252;-36
2023/01/30 01:28:52;;;;;;;19.00;11.90;;;-1.00;99.90;;;;;;5013486;28;20224;-35
2023/01/30 01:31:18;;;;;;;17.00;11.00;;;-0.90;99.90;;;;;;4995516;28;20211;-38
2023/01/30 01:33:44;;;;;;;18.73;11.67;;;-1.00;99.90;;;;;;5011738;28;20215;-37
2023/01/30 01:36:10;;;;;;;19.03;11.93;;;-1.00;99.90;;;;;;5013162;28;20179;-37
2023/01/30 01:38:36;;;;;;;17.87;10.97;;;-1.10;99.90;;;;;;5011930;28;20197;-36
2023/01/30 01:41:02;;;;;;;17.23;10.97;;;-1.10;99.90;;;;;;5013458;28;20187;-38
2023/01/30 01:43:37;;;;;;;17.93;11.07;;;-1.20;99.90;;;;;;4991252;28;20187;-42
2023/01/30 01:46:11;;;;;;;18.93;10.07;;;-1.20;99.90;;;;;;4975981;28;20200;-33
2023/01/30 01:48:48;;;;;;;17.03;10.43;;;-1.30;99.90;;;;;;5011179;28;20200;-38
2023/01/30 01:51:19;;;;;;;15.57;10.13;;;-1.30;99.90;;;;;;5011902;28;20188;-38
2023/01/30 01:54:27;;;;;;;17.33;10.87;;;-1.30;99.90;;;;;;4994940;28;20176;-33
2023/01/30 01:56:53;;;;;;;18.60;10.90;;;-1.30;99.90;;;;;;4966205;28;20192;-37
2023/01/30 01:59:49;;;;;;;18.70;11.10;;;-1.30;99.90;;;;;;4985764;28;20222;-38
2023/01/30 02:02:16;;;;;;;19.10;11.43;;;-1.40;99.90;;;;;;4995383;28;20243;-35
2023/01/30 02:05:02;;;;;;;19.27;11.30;;;-1.30;99.90;;;;;;5011133;28;20185;-35
2023/01/30 02:07:32;;;;;;;17.83;11.03;;;-1.30;99.90;;;;;;5011197;28;20235;-37
2023/01/30 02:09:59;;;;;;;20.17;11.33;;;-1.30;99.90;;;;;;5010816;28;20171;-37
2023/01/30 02:12:25;;;;;;;17.60;11.33;;;-1.40;99.90;;;;;;4993287;28;20227;-38
2023/01/30 02:14:55;;;;;;;18.57;11.10;;;-1.30;99.90;;;;;;4991454;28;20177;-36
2023/01/30 02:17:23;;;;;;;17.30;10.83;;;-1.30;99.90;;;;;;4975599;28;20188;-38
2023/01/30 02:20:25;;;;;;;16.93;10.53;;;-1.30;99.90;;;;;;5001581;28;20220;-36
2023/01/30 02:23:02;;;;;;;15.40;10.20;;;-1.30;99.90;;;;;;4997634;28;20219;-39
2023/01/30 02:25:53;;;;;;;16.20;10.73;;;-1.30;99.90;;;;;;5012708;28;20200;-38
2023/01/30 02:28:35;;;;;;;15.77;9.67;;;-1.40;99.90;;;;;;5008436;28;20204;-36
2023/01/30 02:31:35;;;;;;;18.03;9.97;;;-1.40;99.90;;;;;;5007400;28;20189;-38
2023/01/30 02:34:19;;;;;;;17.50;10.53;;;-1.40;99.90;;;;;;5009595;28;20183;-36
2023/01/30 02:37:25;;;;;;;19.03;10.20;;;-1.50;99.90;;;;;;4991534;28;20176;-34
2023/01/30 02:40:10;;;;;;;13.93;10.20;;;-1.50;99.90;;;;;;4992057;28;20183;-37
2023/01/30 02:42:35;;;;;;;17.63;10.57;;;-1.50;99.90;;;;;;5010842;28;20184;-37
2023/01/30 02:45:23;;;;;;;17.57;10.93;;;-1.50;99.90;;;;;;4994172;28;20184;-36
2023/01/30 02:48:01;;;;;;;16.00;10.03;;;-1.50;99.90;;;;;;5009724;28;20223;-37
2023/01/30 02:50:42;;;;;;;16.10;10.23;;;-1.50;99.90;;;;;;4989971;28;20209;-35
2023/01/30 02:53:09;;;;;;;16.20;10.37;;;-1.50;99.90;;;;;;4991338;28;20182;-36
2023/01/30 02:55:35;;;;;;;16.80;10.63;;;-1.50;99.90;;;;;;4996928;28;20185;-33
2023/01/30 02:58:03;;;;;;;18.77;10.63;;;-1.40;99.90;;;;;;4992991;28;20204;-38
2023/01/30 03:01:09;;;;;;;18.17;10.33;;;-1.40;99.90;;;;;;4991034;28;20180;-36
2023/01/30 03:04:17;;;;;;;15.83;9.87;;;-1.40;99.90;;;;;;4979456;28;20214;-33
2023/01/30 03:07:04;;;;;;;15.43;9.63;;;-1.50;99.90;;;;;;5009922;28;20303;-34
2023/01/30 03:09:54;;;;;;;17.07;10.40;;;-1.50;99.90;;;;;;4993932;28;20282;-37
2023/01/30 03:13:08;;;;;;;16.50;10.40;;;-1.40;99.90;;;;;;5010509;28;20184;-37
2023/01/30 03:15:54;;;;;;;17.27;9.47;;;-1.40;99.90;;;;;;5010087;28;20180;-37
2023/01/30 03:18:20;;;;;;;15.87;9.63;;;-1.50;99.90;;;;;;5010078;28;20214;-36
2023/01/30 03:20:47;;;;;;;15.20;9.93;;;-1.50;99.90;;;;;;4993101;28;20180;-36
2023/01/30 03:23:13;;;;;;;18.30;10.30;;;-1.50;99.90;;;;;;5011416;28;20171;-36
2023/01/30 03:25:42;;;;;;;16.17;9.83;;;-1.50;99.90;;;;;;5012943;28;20190;-35
2023/01/30 03:28:09;;;;;;;16.27;10.57;;;-1.50;99.90;;;;;;5009652;28;20206;-37
2023/01/30 03:30:35;;;;;;;17.27;10.53;;;-1.50;99.90;;;;;;5010038;28;20270;-35
2023/01/30 03:33:09;;;;;;;17.27;10.30;;;-1.50;99.90;;;;;;5010302;28;20175;-37
2023/01/30 03:35:37;;;;;;;15.37;9.57;;;-1.60;99.90;;;;;;5009698;28;20541;-35
2023/01/30 03:38:03;;;;;;;14.93;9.70;;;-1.60;99.90;;;;;;4993483;28;20196;-40
2023/01/30 03:40:29;;;;;;;15.30;9.33;;;-1.60;99.90;;;;;;5009728;28;20179;-40
2023/01/30 03:42:56;;;;;;;17.77;10.40;;;-1.70;99.90;;;;;;5010239;28;20204;-40
2023/01/30 03:45:22;;;;;;;16.47;10.17;;;-1.70;99.90;;;;;;4993491;28;20188;-40
2023/01/30 03:47:48;;;;;;;16.00;10.13;;;-1.70;99.90;;;;;;4993458;28;20210;-40
2023/01/30 03:50:15;;;;;;;15.37;9.60;;;-1.70;99.90;;;;;;4993332;28;20217;-40
2023/01/30 03:52:43;;;;;;;16.43;10.20;;;-1.70;99.90;;;;;;5010320;28;20176;-40
2023/01/30 03:55:13;;;;;;;14.60;9.53;;;-1.60;99.90;;;;;;5008478;28;20179;-40
2023/01/30 03:57:39;;;;;;;17.37;9.67;;;-1.60;99.90;;;;;;5001988;28;20202;-41
2023/01/30 04:00:06;;;;;;;12.83;9.07;;;-1.60;99.90;;;;;;5033047;23;20244;-40
2023/01/30 04:02:41;;;;;;;15.37;9.20;;;-1.60;99.90;;;;;;5049993;28;20221;-37
2023/01/30 04:05:08;;;;;;;16.50;9.57;;;-1.60;99.90;;;;;;5000706;28;20182;-38
2023/01/30 04:07:35;;;;;;;17.00;9.67;;;-1.50;99.90;;;;;;5029510;28;20214;-40
2023/01/30 04:10:02;;;;;;;17.47;9.30;;;-1.50;99.90;;;;;;5039576;28;20195;-37
2023/01/30 04:12:28;;;;;;;15.73;9.53;;;-1.40;99.90;;;;;;5013001;28;20193;-39
2023/01/30 04:14:57;;;;;;;19.30;10.20;;;-1.40;99.90;;;;;;5015470;28;20183;-39
2023/01/30 04:17:46;;;;;;;14.37;8.57;;;-1.40;99.90;;;;;;5010160;28;20183;-39
2023/01/30 04:20:35;;;;;;;15.73;9.90;;;-1.30;99.90;;;;;;4973850;28;20211;-38
2023/01/30 04:23:04;;;;;;;14.70;8.40;;;-1.30;99.90;;;;;;5024422;28;20211;-39
2023/01/30 04:25:30;;;;;;;14.90;9.30;;;-1.30;99.90;;;;;;5028491;28;20191;-38
2023/01/30 04:27:56;;;;;;;14.33;8.60;;;-1.30;99.90;;;;;;5045421;28;20221;-40
2023/01/30 04:30:29;;;;;;;16.97;8.97;;;-1.20;99.90;;;;;;5045508;28;20202;-40
2023/01/30 04:33:14;;;;;;;13.93;8.87;;;-1.30;99.90;;;;;;5031180;28;20228;-41
2023/01/30 04:35:52;;;;;;;14.50;9.60;;;-1.30;99.90;;;;;;5024138;28;20180;-42
2023/01/30 04:38:22;;;;;;;15.43;8.90;;;-1.30;99.90;;;;;;5061105;28;20222;-41
2023/01/30 04:40:58;;;;;;;15.27;9.07;;;-1.30;99.90;;;;;;5046863;28;20207;-40
2023/01/30 04:43:32;;;;;;;12.80;8.07;;;-1.30;99.90;;;;;;5059482;28;20201;-40
2023/01/30 04:46:29;;;;;;;16.03;9.43;;;-1.20;99.90;;;;;;5039763;28;20210;-40
2023/01/30 04:48:56;;;;;;;14.73;9.07;;;-1.20;99.90;;;;;;5033701;28;20196;-40
2023/01/30 04:51:23;;;;;;;14.37;9.17;;;-1.30;99.90;;;;;;5049017;28;20213;-41
2023/01/30 04:53:50;;;;;;;13.27;8.73;;;-1.20;99.90;;;;;;5037943;28;20179;-39
2023/01/30 04:56:16;;;;;;;14.97;8.93;;;-1.20;99.90;;;;;;5022980;28;20241;-39
2023/01/30 04:58:43;;;;;;;16.07;9.00;;;-1.20;99.90;;;;;;5012209;28;20178;-40
2023/01/30 05:01:19;;;;;;;14.10;8.57;;;-1.20;99.90;;;;;;5015770;28;20229;-39
2023/01/30 05:03:49;;;;;;;18.03;10.03;;;-1.20;99.90;;;;;;5051728;28;20174;-39
2023/01/30 05:06:15;;;;;;;14.77;9.53;;;-1.20;99.90;;;;;;5032205;28;20202;-39
2023/01/30 05:08:41;;;;;;;13.83;9.00;;;-1.20;99.90;;;;;;5032008;28;20202;-40
2023/01/30 05:11:06;;;;;;;15.27;8.90;;;-1.20;99.90;;;;;;5014965;28;20198;-39
2023/01/30 05:13:32;;;;;;;14.17;8.70;;;-1.20;99.90;;;;;;4995533;28;20231;-38
2023/01/30 05:15:58;;;;;;;15.93;10.00;;;-1.20;99.90;;;;;;5017528;28;20179;-38
2023/01/30 05:18:23;;;;;;;14.43;9.00;;;-1.20;99.90;;;;;;5015538;28;20179;-38
2023/01/30 05:20:49;;;;;;;14.90;9.47;;;-1.10;99.90;;;;;;5009104;28;20199;-39
2023/01/30 05:23:15;;;;;;;14.67;9.53;;;-1.00;99.90;;;;;;5012562;28;20187;-39
2023/01/30 05:25:41;;;;;;;16.13;9.53;;;-1.00;99.90;;;;;;5033107;28;20183;-39
2023/01/30 05:28:07;;;;;;;15.47;9.60;;;-1.00;99.90;;;;;;5036564;28;20263;-38
2023/01/30 05:30:33;;;;;;;15.37;9.40;;;-0.90;99.90;;;;;;5029217;28;20190;-38
2023/01/30 05:32:58;;;;;;;16.87;10.30;;;-0.90;99.90;;;;;;5011632;28;20176;-42
2023/01/30 05:35:24;;;;;;;15.60;10.00;;;-0.90;99.90;;;;;;5013290;28;20236;-39
2023/01/30 05:37:51;;;;;;;14.73;9.43;;;-0.90;99.90;;;;;;5030405;28;20180;-40
2023/01/30 05:40:17;;;;;;;13.50;9.20;;;-0.90;99.90;;;;;;5027970;28;20249;-38
2023/01/30 05:42:43;;;;;;;13.97;8.60;;;-0.90;99.90;;;;;;5022767;28;20671;-39
2023/01/30 05:45:09;;;;;;;15.83;8.73;;;-0.90;99.90;;;;;;5012721;28;20183;-40
2023/01/30 05:47:35;;;;;;;14.97;8.73;;;-0.80;99.90;;;;;;5031940;28;20743;-42
2023/01/30 05:50:00;;;;;;;15.13;9.23;;;-0.80;99.90;;;;;;5026988;28;20308;-40
2023/01/30 05:52:26;;;;;;;13.63;8.57;;;-0.80;99.90;;;;;;5017236;28;20183;-43
2023/01/30 05:54:52;;;;;;;14.20;8.33;;;-0.70;99.90;;;;;;5023015;28;20186;-39
2023/01/30 05:57:17;;;;;;;14.37;9.07;;;-0.70;99.90;;;;;;5031533;28;20193;-39
2023/01/30 05:59:43;;;;;;;11.83;8.43;;;-0.70;99.90;;;;;;5030221;28;20268;-40
2023/01/30 06:02:09;;;;;;;13.03;8.30;;;-0.70;99.90;;;;;;5018949;28;20258;-41
2023/01/30 06:04:35;;;;;;;13.03;8.33;;;-0.70;99.90;;;;;;5018243;28;20270;-39
2023/01/30 06:07:01;;;;;;;12.87;8.03;;;-0.70;99.90;;;;;;5014877;28;20263;-40
2023/01/30 06:09:27;;;;;;;14.93;8.63;;;-0.70;99.90;;;;;;5031072;28;20186;-39
2023/01/30 06:11:54;;;;;;;14.67;8.67;;;-0.60;99.90;;;;;;5013119;28;20174;-41
2023/01/30 06:14:20;;;;;;;13.13;9.10;;;-0.60;99.90;;;;;;5014721;28;20187;-39
2023/01/30 06:16:46;;;;;;;12.20;7.80;;;-0.60;99.90;;;;;;5029439;28;20183;-39
2023/01/30 06:19:11;;;;;;;11.17;7.77;;;-0.70;99.90;;;;;;5011532;28;20179;-39
2023/01/30 06:21:37;;;;;;;11.63;7.10;;;-0.70;99.90;;;;;;5021779;28;20202;-39
2023/01/30 06:24:03;;;;;;;11.00;7.63;;;-0.70;99.90;;;;;;5032458;28;20196;-39
2023/01/30 06:26:29;;;;;;;11.73;7.53;;;-0.80;99.90;;;;;;5021805;28;20240;-40
2023/01/30 06:28:55;;;;;;;12.50;7.77;;;-0.80;99.90;;;;;;5000341;28;20202;-41
2023/01/30 06:31:20;;;;;;;11.43;7.67;;;-0.80;99.90;;;;;;5013293;28;20248;-39
2023/01/30 06:33:48;;;;;;;12.03;7.50;;;-0.80;99.90;;;;;;5017274;28;20186;-39
2023/01/30 06:36:14;;;;;;;10.00;7.17;;;-0.80;99.90;;;;;;5014370;28;20191;-39
2023/01/30 06:38:39;;;;;;;10.63;7.03;;;-0.80;99.90;;;;;;5009057;28;20171;-39
2023/01/30 06:41:05;;;;;;;13.03;7.57;;;-0.80;99.90;;;;;;5018798;28;20229;-39
2023/01/30 06:43:31;;;;;;;10.70;7.60;;;-0.80;99.90;;;;;;5026207;28;20167;-39
2023/01/30 06:46:00;;;;;;;10.77;6.83;;;-0.80;99.90;;;;;;5013122;28;20183;-39
2023/01/30 06:48:26;;;;;;;11.23;7.67;;;-0.80;99.90;;;;;;5015784;28;20591;-40
2023/01/30 06:50:51;;;;;;;12.77;8.03;;;-0.70;99.90;;;;;;5030682;28;20203;-39
2023/01/30 06:53:17;;;;;;;12.73;8.07;;;-0.70;99.90;;;;;;5030378;28;20169;-39
2023/01/30 06:55:43;;;;;;;11.67;7.73;;;-0.70;99.90;;;;;;5004995;28;20278;-39
2023/01/30 06:58:13;;;;;;;12.07;7.53;;;-0.70;99.90;;;;;;5033862;28;20178;-39
2023/01/30 07:00:41;;;;;;;12.67;6.93;;;-0.70;99.90;;;;;;5051997;28;20215;-39
2023/01/30 07:03:15;;;;;;;13.23;7.90;;;-0.70;99.90;;;;;;5017255;28;20269;-41
2023/01/30 07:05:42;;;;;;;13.27;7.90;;;-0.70;99.90;;;;;;5032981;28;20268;-39
2023/01/30 07:08:09;;;;;;;12.13;7.63;;;-0.70;99.90;;;;;;5033860;28;20201;-39
2023/01/30 07:10:34;;;;;;;13.37;8.13;;;-0.70;99.90;;;;;;5016911;28;20202;-39
2023/01/30 07:13:01;;;;;;;10.53;6.60;;;-0.70;99.90;;;;;;5051229;28;20231;-38
2023/01/30 07:15:27;;;;;;;11.47;7.27;;;-0.70;99.90;;;;;;5051034;28;20170;-39
2023/01/30 07:17:53;;;;;;;12.80;7.83;;;-0.60;99.90;;;;;;5051606;28;20187;-39
2023/01/30 07:20:19;;;;;;;13.00;7.67;;;-0.60;99.90;;;;;;5033207;28;20290;-39
2023/01/30 07:22:52;;;;;;;12.83;7.57;;;-0.60;99.90;;;;;;5032698;28;20207;-39
2023/01/30 07:25:19;;;;;;;12.87;7.77;;;-0.60;99.90;;;;;;5030976;28;20190;-42
2023/01/30 07:27:53;;;;;;;11.57;6.80;;;-0.50;99.90;;;;;;5029857;28;20214;-43
2023/01/30 07:30:19;;;;;;;11.33;7.77;;;-0.50;99.90;;;;;;5029902;28;20196;-41
2023/01/30 07:32:53;;;;;;;10.63;7.77;;;-0.40;99.90;;;;;;5013405;28;20183;-39
2023/01/30 07:35:20;;;;;;;11.93;7.00;;;-0.40;99.90;;;;;;5027354;28;20243;-39
2023/01/30 07:37:46;;;;;;;11.17;7.07;;;-0.30;99.90;;;;;;5026241;28;20232;-39
2023/01/30 07:40:13;;;;;;;10.97;6.80;;;-0.30;99.90;;;;;;5022578;28;20629;-39
2023/01/30 07:42:38;;;;;;;11.30;6.83;;;-0.30;99.90;;;;;;5030466;28;20185;-40
2023/01/30 07:45:05;;;;;;;12.47;8.23;;;-0.20;99.90;;;;;;5031362;28;20183;-40
2023/01/30 07:47:30;;;;;;;12.60;7.60;;;-0.20;99.90;;;;;;5031112;28;20270;-38
2023/01/30 07:49:56;;;;;;;10.37;6.93;;;-0.20;99.90;;;;;;5030988;28;20287;-41
2023/01/30 07:52:22;;;;;;;10.80;6.67;;;-0.20;99.90;;;;;;5029757;28;20184;-38
2023/01/30 07:54:48;;;;;;;9.70;6.80;;;-0.20;99.90;;;;;;5031207;28;20195;-39
2023/01/30 07:57:13;;;;;;;10.13;6.97;;;-0.10;99.90;;;;;;5039286;28;20267;-39
2023/01/30 07:59:39;;;;;;;8.83;6.23;;;-0.10;99.90;;;;;;5030908;28;20181;-39
2023/01/30 08:02:08;;;;;;;9.77;6.70;;;-0.10;99.90;;;;;;5029907;28;20187;-39
2023/01/30 08:04:33;;;;;;;10.27;6.70;;;-0.10;99.90;;;;;;5030462;28;20177;-39
2023/01/30 08:06:59;;;;;;;10.23;7.00;;;-0.10;99.90;;;;;;5030766;28;20207;-39
2023/01/30 08:09:25;;;;;;;10.60;6.57;;;0.00;99.90;;;;;;5033692;28;20211;-39
2023/01/30 08:11:51;;;;;;;10.53;6.93;;;0.00;99.90;;;;;;5017052;28;20232;-41
2023/01/30 08:14:17;;;;;;;11.67;6.57;;;0.00;99.90;;;;;;5032719;28;20255;-39
2023/01/30 08:16:43;;;;;;;10.97;6.70;;;0.10;99.90;;;;;;5033284;28;20284;-39
2023/01/30 08:19:09;;;;;;;10.87;7.33;;;0.10;99.90;;;;;;5034034;28;20184;-39
2023/01/30 08:21:34;;;;;;;10.80;7.13;;;0.10;99.90;;;;;;5016829;28;20217;-39
2023/01/30 08:24:00;;;;;;;10.30;7.47;;;0.10;99.90;;;;;;5028540;28;20520;-39
2023/01/30 08:26:27;;;;;;;11.10;7.10;;;0.10;99.90;;;;;;5024487;28;20182;-41
2023/01/30 08:28:54;;;;;;;12.00;7.47;;;0.10;99.90;;;;;;5013703;28;20182;-38
2023/01/30 08:31:21;;;;;;;10.63;6.63;;;0.10;99.90;;;;;;5028877;28;20203;-39
2023/01/30 08:33:48;;;;;;;11.57;7.23;;;0.10;99.90;;;;;;5025769;28;20186;-38
2023/01/30 08:36:15;;;;;;;11.27;7.40;;;0.10;99.90;;;;;;5026708;28;20268;-39
2023/01/30 08:38:41;;;;;;;10.27;6.33;;;0.10;99.90;;;;;;5013291;28;20284;-41
2023/01/30 08:41:08;;;;;;;9.70;6.70;;;0.20;99.90;;;;;;5035608;28;20279;-39
2023/01/30 08:43:34;;;;;;;9.33;6.37;;;0.30;99.90;;;;;;5011535;28;20211;-39
2023/01/30 08:46:01;;;;;;;12.43;7.23;;;0.40;99.90;;;;;;5014417;28;20227;-39
2023/01/30 08:48:27;;;;;;;13.23;7.43;;;0.50;99.90;;;;;;5020161;28;20214;-39
2023/01/30 08:50:54;;;;;;;10.13;6.93;;;0.60;99.90;;;;;;5020070;28;20738;-40
2023/01/30 08:53:23;;;;;;;9.20;6.67;;;0.80;99.90;;;;;;5028508;28;20274;-39
2023/01/30 08:55:51;;;;;;;8.50;5.67;;;0.80;99.90;;;;;;5022947;28;20185;-39
2023/01/30 08:58:17;;;;;;;10.53;6.57;;;0.90;99.90;;;;;;5016126;28;20200;-39
2023/01/30 09:00:43;;;;;;;10.87;6.87;;;0.90;99.90;;;;;;5015757;28;20221;-39
2023/01/30 09:03:11;;;;;;;9.10;5.60;;;1.00;99.90;;;;;;5016339;28;20182;-39
2023/01/30 09:05:37;;;;;;;7.67;5.63;;;1.00;99.90;;;;;;5032526;28;20184;-39
2023/01/30 09:08:04;;;;;;;9.07;6.17;;;1.10;99.90;;;;;;5032335;28;20204;-39
2023/01/30 09:10:30;;;;;;;10.00;6.60;;;1.20;99.90;;;;;;5008530;28;20193;-39
2023/01/30 09:12:56;;;;;;;8.50;5.93;;;1.20;99.90;;;;;;5004257;28;20268;-39
2023/01/30 09:15:22;;;;;;;7.87;5.33;;;1.30;99.90;;;;;;5008893;28;20262;-39
2023/01/30 09:17:51;;;;;;;10.77;6.70;;;1.40;99.90;;;;;;5024029;28;20274;-39
2023/01/30 09:20:19;;;;;;;10.53;6.53;;;1.50;99.90;;;;;;5028236;28;20202;-39
2023/01/30 09:22:45;;;;;;;8.87;6.07;;;1.60;99.90;;;;;;5018827;28;20182;-43
2023/01/30 09:25:12;;;;;;;8.70;5.87;;;1.70;99.90;;;;;;5026279;28;20201;-39
2023/01/30 09:27:38;;;;;;;7.37;5.33;;;1.80;99.90;;;;;;5026784;28;20208;-39
2023/01/30 09:30:05;;;;;;;7.30;5.03;;;1.90;99.90;;;;;;5032330;28;20209;-40
2023/01/30 09:32:30;;;;;;;7.67;5.53;;;2.00;99.90;;;;;;5032569;28;20193;-39
2023/01/30 09:34:56;;;;;;;8.83;5.43;;;2.10;99.90;;;;;;5015041;28;20184;-39
2023/01/30 09:37:23;;;;;;;7.23;5.00;;;2.20;99.90;;;;;;5032616;28;20178;-40
2023/01/30 09:39:48;;;;;;;7.37;5.13;;;2.30;99.90;;;;;;5032432;28;20199;-39
2023/01/30 09:42:33;;;;;;;9.57;5.27;;;2.40;99.90;;;;;;4999325;28;20190;-38
2023/01/30 09:45:12;;;;;;;6.73;4.77;;;2.50;99.90;;;;;;5015183;28;20200;-38
2023/01/30 09:47:42;;;;;;;8.93;5.47;;;2.60;99.90;;;;;;5032892;28;20748;-40
2023/01/30 09:50:23;;;;;;;11.00;5.60;;;2.70;99.90;;;;;;5032825;28;20197;-38
2023/01/30 09:53:01;;;;;;;6.60;4.23;;;2.80;99.90;;;;;;5031618;28;20182;-39
2023/01/30 09:55:29;;;;;;;6.47;4.30;;;2.90;99.90;;;;;;5017569;28;20178;-40
2023/01/30 09:57:57;;;;;;;6.00;4.60;;;3.10;99.90;;;;;;5037979;28;20185;-39
2023/01/30 10:00:31;;;;;;;6.80;4.67;;;3.30;99.90;;;;;;5033577;28;20214;-39
2023/01/30 10:03:23;;;;;;;7.97;4.67;;;3.40;99.90;;;;;;5014989;28;20186;-41
2023/01/30 10:06:03;;;;;;;10.80;4.53;;;3.40;99.90;;;;;;5031536;28;20225;-40
2023/01/30 10:08:50;;;;;;;6.13;4.50;;;3.50;99.90;;;;;;5033236;28;20264;-37
2023/01/30 10:11:48;;;;;;;14.70;6.57;;;3.50;99.90;;;;;;5031486;28;20193;-38
2023/01/30 10:14:35;;;;;;;8.07;4.77;;;3.70;99.90;;;;;;5014634;28;20190;-39
2023/01/30 10:17:31;;;;;;;6.90;5.00;;;3.70;99.90;;;;;;5031369;28;20189;-38
2023/01/30 10:20:15;;;;;;;8.17;4.53;;;3.60;99.90;;;;;;5031067;28;20283;-37
2023/01/30 10:22:56;;;;;;;6.90;4.20;;;3.50;99.90;;;;;;5014481;28;20189;-38
2023/01/30 10:25:26;;;;;;;13.67;5.53;;;3.30;99.90;;;;;;5035179;28;20205;-38
2023/01/30 10:28:24;;;;;;;5.97;4.27;;;3.30;99.90;;;;;;5030884;28;20234;-37
2023/01/30 10:30:55;;;;;;;5.30;3.93;;;3.40;99.90;;;;;;5010056;28;20264;-37
2023/01/30 10:33:29;;;;;;;6.33;4.50;;;3.70;99.90;;;;;;5031972;28;20182;-40
2023/01/30 10:36:09;;;;;;;6.37;4.30;;;3.80;99.90;;;;;;5032123;28;20341;-38
2023/01/30 10:38:52;;;;;;;6.17;4.27;;;3.90;99.90;;;;;;5031132;28;20186;-37
2023/01/30 10:41:35;;;;;;;5.43;3.83;;;3.80;99.90;;;;;;5031062;28;20225;-39
2023/01/30 10:44:13;;;;;;;5.80;3.87;;;3.80;99.90;;;;;;5031806;28;20186;-38
2023/01/30 10:46:53;;;;;;;5.20;3.67;;;3.90;99.90;;;;;;5030975;28;20210;-37
2023/01/30 10:49:35;;;;;;;7.07;3.60;;;4.10;99.90;;;;;;5030612;28;20179;-40
2023/01/30 10:52:30;;;;;;;3.67;3.00;;;4.30;99.90;;;;;;5031069;28;20253;-37
2023/01/30 10:54:59;;;;;;;6.13;3.60;;;4.50;99.90;;;;;;5029954;28;20200;-37
2023/01/30 10:57:34;;;;;;;6.37;3.20;;;4.50;99.90;;;;;;5030466;28;20190;-38
2023/01/30 11:00:08;;;;;;;4.13;3.30;;;4.50;99.90;;;;;;5013251;28;20217;-38
2023/01/30 11:02:55;;;;;;;3.80;3.07;;;4.40;99.90;;;;;;5029296;28;20186;-37
2023/01/30 11:05:24;;;;;;;4.23;3.10;;;4.30;99.90;;;;;;5032091;28;20182;-37
2023/01/30 11:07:52;;;;;;;4.10;2.97;;;4.20;99.90;;;;;;5032145;28;20248;-40
2023/01/30 11:10:25;;;;;;;4.63;3.30;;;4.10;99.90;;;;;;5014541;28;20648;-37
2023/01/30 11:13:09;;;;;;;3.50;2.67;;;4.20;99.90;;;;;;5031511;28;20615;-38
2023/01/30 11:15:43;;;;;;;3.73;2.77;;;4.10;99.90;;;;;;5032351;28;20187;-38
2023/01/30 11:18:09;;;;;;;4.20;2.53;;;4.10;99.90;;;;;;5030734;28;20185;-37
2023/01/30 11:20:45;;;;;;;4.70;2.93;;;4.00;99.90;;;;;;5010468;28;20285;-37
2023/01/30 11:23:26;;;;;;;4.20;2.77;;;3.90;99.90;;;;;;5028585;28;20197;-36
2023/01/30 11:25:56;;;;;;;4.07;2.90;;;3.90;99.90;;;;;;5013464;28;20280;-39
2023/01/30 11:28:41;;;;;;;4.17;2.87;;;3.90;99.90;;;;;;5048139;28;20202;-38
2023/01/30 11:31:33;;;;;;;4.60;2.70;;;3.90;99.90;;;;;;5016613;28;20233;-37
2023/01/30 11:34:19;;;;;;;4.40;3.00;;;3.80;99.90;;;;;;5051366;28;20195;-37
2023/01/30 11:36:47;;;;;;;3.53;2.70;;;3.80;99.90;;;;;;5017962;28;20179;-37
2023/01/30 11:39:17;;;;;;;4.13;3.37;;;3.90;99.90;;;;;;5030353;28;20182;-37
2023/01/30 11:42:02;;;;;;;6.23;4.70;;;3.80;99.90;;;;;;5029556;28;20257;-37
2023/01/30 11:44:29;;;;;;;4.77;3.10;;;3.80;99.90;;;;;;4998322;28;20175;-37
2023/01/30 11:47:08;;;;;;;4.97;3.60;;;3.80;99.90;;;;;;5011387;28;20203;-37
2023/01/30 11:49:41;;;;;;;4.23;3.40;;;3.90;99.90;;;;;;5009837;28;20679;-37
2023/01/30 11:52:07;;;;;;;4.90;3.23;;;3.90;99.90;;;;;;5018364;28;20182;-37
2023/01/30 11:54:39;;;;;;;4.70;3.30;;;3.90;99.90;;;;;;5031603;28;20201;-38
2023/01/30 11:57:11;;;;;;;4.00;3.10;;;3.90;99.90;;;;;;5022232;28;20195;-37
2023/01/30 11:59:46;;;;;;;6.07;3.13;;;3.90;99.90;;;;;;5009853;28;20190;-36
2023/01/30 12:02:32;;;;;;;6.07;4.13;;;3.90;99.90;;;;;;5011854;28;20186;-37
2023/01/30 12:05:15;;;;;;;4.63;3.07;;;3.80;99.90;;;;;;5010134;28;20187;-36
2023/01/30 12:07:45;;;;;;;5.93;3.60;;;3.80;99.90;;;;;;5022476;28;20210;-38
2023/01/30 12:10:23;;;;;;;6.03;3.63;;;3.80;99.90;;;;;;5030735;28;20206;-39
2023/01/30 12:12:52;;;;;;;5.67;3.87;;;3.80;99.90;;;;;;5028239;28;20261;-37
2023/01/30 12:15:22;;;;;;;5.47;3.83;;;3.80;99.90;;;;;;5030897;28;20179;-38
2023/01/30 12:18:02;;;;;;;6.80;4.10;;;3.80;99.90;;;;;;5016698;28;20187;-38
2023/01/30 12:21:00;;;;;;;6.43;3.77;;;3.90;99.90;;;;;;5029358;28;20198;-40
2023/01/30 12:23:39;;;;;;;5.20;3.60;;;3.90;99.90;;;;;;5031033;28;20241;-39
2023/01/30 12:26:19;;;;;;;6.17;3.87;;;3.90;99.90;;;;;;5025283;28;20250;-37
2023/01/30 12:29:14;;;;;;;6.50;3.43;;;3.90;99.90;;;;;;5016858;28;20233;-38
2023/01/30 12:32:10;;;;;;;7.00;4.43;;;3.90;99.90;;;;;;4997178;28;20205;-38
2023/01/30 12:34:36;;;;;;;8.03;4.93;;;3.90;99.90;;;;;;5010401;28;20188;-37
2023/01/30 12:37:07;;;;;;;10.47;7.43;;;3.90;99.90;;;;;;5013199;28;20183;-41
2023/01/30 12:40:11;;;;;;;5.90;4.63;;;3.90;99.90;;;;;;5013434;28;20270;-37
2023/01/30 12:43:05;;;;;;;5.10;4.07;;;3.90;99.90;;;;;;4977193;28;20271;-39
2023/01/30 12:45:38;;;;;;;7.10;3.60;;;3.90;99.90;;;;;;4974521;28;20194;-37
2023/01/30 12:48:28;;;;;;;5.57;3.80;;;3.90;99.90;;;;;;5028007;28;20214;-38
2023/01/30 12:51:09;;;;;;;5.67;3.97;;;3.90;99.90;;;;;;5024208;28;20195;-37
2023/01/30 12:53:55;;;;;;;5.73;3.50;;;3.90;99.90;;;;;;5011161;28;20186;-36
2023/01/30 12:56:48;;;;;;;5.30;3.97;;;3.80;99.90;;;;;;5034056;28;20273;-38
2023/01/30 12:59:33;;;;;;;6.33;4.13;;;3.90;99.90;;;;;;5027660;28;20166;-37
2023/01/30 13:02:33;;;;;;;6.67;4.10;;;3.80;99.90;;;;;;5026787;28;20209;-37
2023/01/30 13:05:40;;;;;;;5.10;3.87;;;3.80;99.90;;;;;;5033664;28;20178;-37
2023/01/30 13:08:28;;;;;;;7.93;4.33;;;3.90;99.90;;;;;;4955878;28;20589;-37
2023/01/30 13:11:04;;;;;;;5.13;3.63;;;4.00;99.90;;;;;;4948381;28;20207;-37